sensor_id;sensor_type;location;lat;lon;timestamp;pressure;altitude;pressure_sealevel;temperature;humidity
10176;BME280;18221;38.704;0.152;2023-05-08T00:00:42;99392.72;;;22.31;53.18
10176;BME280;18221;38.704;0.152;2023-05-08T00:03:11;99401.66;;;22.38;53.09
10176;BME280;18221;38.704;0.152;2023-05-08T00:05:41;99390.41;;;22.28;53.47
10176;BME280;18221;38.704;0.152;2023-05-08T00:08:09;99395.41;;;22.18;54.04
10176;BME280;18221;38.704;0.152;2023-05-08T00:10:37;99391.16;;;21.95;54.64
10176;BME280;18221;38.704;0.152;2023-05-08T00:13:05;99388.66;;;22.00;54.79
10176;BME280;18221;38.704;0.152;2023-05-08T00:15:35;99377.84;;;22.00;54.88
10176;BME280;18221;38.704;0.152;2023-05-08T00:18:05;99385.59;;;22.17;54.66
10176;BME280;18221;38.704;0.152;2023-05-08T00:20:33;99377.91;;;22.20;54.45
10176;BME280;18221;38.704;0.152;2023-05-08T00:23:02;99385.19;;;22.20;54.57
10176;BME280;18221;38.704;0.152;2023-05-08T00:25:30;99386.41;;;22.04;55.16
10176;BME280;18221;38.704;0.152;2023-05-08T00:27:58;99386.25;;;22.19;54.68
10176;BME280;18221;38.704;0.152;2023-05-08T00:30:27;99375.00;;;22.15;54.94
10176;BME280;18221;38.704;0.152;2023-05-08T00:32:55;99378.75;;;22.21;54.93
10176;BME280;18221;38.704;0.152;2023-05-08T00:35:25;99378.31;;;22.10;55.13
10176;BME280;18221;38.704;0.152;2023-05-08T00:37:54;99368.53;;;22.09;54.72
10176;BME280;18221;38.704;0.152;2023-05-08T00:40:22;99367.03;;;22.00;55.07
10176;BME280;18221;38.704;0.152;2023-05-08T00:42:50;99374.56;;;22.11;54.82
10176;BME280;18221;38.704;0.152;2023-05-08T00:45:19;99369.16;;;22.11;55.01
10176;BME280;18221;38.704;0.152;2023-05-08T00:47:49;99363.34;;;22.14;54.79
10176;BME280;18221;38.704;0.152;2023-05-08T00:50:18;99364.16;;;22.08;54.81
10176;BME280;18221;38.704;0.152;2023-05-08T00:52:50;99369.56;;;22.08;54.97
10176;BME280;18221;38.704;0.152;2023-05-08T00:55:19;99365.00;;;22.09;55.08
10176;BME280;18221;38.704;0.152;2023-05-08T00:57:48;99354.31;;;21.88;55.63
10176;BME280;18221;38.704;0.152;2023-05-08T01:00:20;99358.94;;;21.94;55.15
10176;BME280;18221;38.704;0.152;2023-05-08T01:02:49;99353.78;;;22.05;55.05
10176;BME280;18221;38.704;0.152;2023-05-08T01:05:18;99359.13;;;21.92;54.97
10176;BME280;18221;38.704;0.152;2023-05-08T01:07:49;99359.53;;;21.96;55.00
10176;BME280;18221;38.704;0.152;2023-05-08T01:10:18;99356.00;;;21.89;54.84
10176;BME280;18221;38.704;0.152;2023-05-08T01:13:01;99345.34;;;21.81;54.88
10176;BME280;18221;38.704;0.152;2023-05-08T01:15:48;99339.53;;;21.84;55.01
10176;BME280;18221;38.704;0.152;2023-05-08T01:18:24;99339.91;;;21.74;55.53
10176;BME280;18221;38.704;0.152;2023-05-08T01:21:02;99339.25;;;21.72;55.66
10176;BME280;18221;38.704;0.152;2023-05-08T01:30:48;99339.50;;;21.77;55.79
10176;BME280;18221;38.704;0.152;2023-05-08T01:33:31;99344.91;;;21.77;55.79
10176;BME280;18221;38.704;0.152;2023-05-08T01:36:16;99345.31;;;21.74;55.79
10176;BME280;18221;38.704;0.152;2023-05-08T01:39:01;99339.09;;;21.80;55.51
10176;BME280;18221;38.704;0.152;2023-05-08T01:41:35;99344.66;;;21.72;55.56
10176;BME280;18221;38.704;0.152;2023-05-08T01:44:14;99348.78;;;21.62;55.88
10176;BME280;18221;38.704;0.152;2023-05-08T01:46:49;99342.59;;;21.68;55.58
10176;BME280;18221;38.704;0.152;2023-05-08T01:49:25;99342.19;;;21.71;55.63
10176;BME280;18221;38.704;0.152;2023-05-08T01:52:02;99344.06;;;21.70;55.43
10176;BME280;18221;38.704;0.152;2023-05-08T01:54:40;99354.00;;;21.63;55.29
10176;BME280;18221;38.704;0.152;2023-05-08T01:57:11;99351.28;;;21.57;55.28
10176;BME280;18221;38.704;0.152;2023-05-08T01:59:43;99350.91;;;21.66;55.25
10176;BME280;18221;38.704;0.152;2023-05-08T02:02:13;99349.66;;;21.69;54.83
10176;BME280;18221;38.704;0.152;2023-05-08T02:04:45;99356.09;;;21.61;55.15
10176;BME280;18221;38.704;0.152;2023-05-08T02:07:15;99349.91;;;21.74;54.82
10176;BME280;18221;38.704;0.152;2023-05-08T02:09:45;99358.84;;;21.81;54.54
10176;BME280;18221;38.704;0.152;2023-05-08T02:12:17;99356.72;;;21.63;54.84
10176;BME280;18221;38.704;0.152;2023-05-08T02:14:47;99357.94;;;21.61;54.76
10176;BME280;18221;38.704;0.152;2023-05-08T02:17:18;99346.75;;;21.64;54.72
10176;BME280;18221;38.704;0.152;2023-05-08T02:19:54;99354.19;;;21.55;54.65
10176;BME280;18221;38.704;0.152;2023-05-08T02:22:25;99357.44;;;21.44;54.57
10176;BME280;18221;38.704;0.152;2023-05-08T02:24:57;99356.50;;;21.58;53.97
10176;BME280;18221;38.704;0.152;2023-05-08T02:27:27;99358.00;;;21.33;54.33
10176;BME280;18221;38.704;0.152;2023-05-08T02:29:58;99365.78;;;21.49;54.05
10176;BME280;18221;38.704;0.152;2023-05-08T02:32:29;99362.84;;;21.44;53.97
10176;BME280;18221;38.704;0.152;2023-05-08T02:35:03;99349.03;;;21.26;54.07
10176;BME280;18221;38.704;0.152;2023-05-08T02:37:34;99353.09;;;21.43;53.77
10176;BME280;18221;38.704;0.152;2023-05-08T02:40:05;99350.69;;;21.61;53.41
10176;BME280;18221;38.704;0.152;2023-05-08T02:42:36;99352.94;;;21.58;53.44
10176;BME280;18221;38.704;0.152;2023-05-08T02:45:07;99354.59;;;21.52;53.63
10176;BME280;18221;38.704;0.152;2023-05-08T02:47:46;99351.03;;;21.45;53.58
10176;BME280;18221;38.704;0.152;2023-05-08T02:50:22;99357.50;;;21.50;53.65
10176;BME280;18221;38.704;0.152;2023-05-08T02:53:02;99359.41;;;21.63;53.38
10176;BME280;18221;38.704;0.152;2023-05-08T02:55:39;99354.81;;;21.57;53.25
10176;BME280;18221;38.704;0.152;2023-05-08T02:58:16;99360.59;;;21.47;53.56
10176;BME280;18221;38.704;0.152;2023-05-08T03:00:57;99355.97;;;21.41;53.69
10176;BME280;18221;38.704;0.152;2023-05-08T03:03:34;99351.66;;;21.47;53.44
10176;BME280;18221;38.704;0.152;2023-05-08T03:06:12;99351.03;;;21.45;53.33
10176;BME280;18221;38.704;0.152;2023-05-08T03:08:44;99352.66;;;21.39;53.31
10176;BME280;18221;38.704;0.152;2023-05-08T03:11:21;99351.44;;;21.48;53.09
10176;BME280;18221;38.704;0.152;2023-05-08T03:13:58;99348.31;;;21.45;52.96
10176;BME280;18221;38.704;0.152;2023-05-08T03:16:34;99354.78;;;21.50;52.99
10176;BME280;18221;38.704;0.152;2023-05-08T03:19:14;99343.59;;;21.60;52.52
10176;BME280;18221;38.704;0.152;2023-05-08T03:21:46;99346.25;;;21.53;52.53
10176;BME280;18221;38.704;0.152;2023-05-08T03:24:19;99351.44;;;21.48;52.45
10176;BME280;18221;38.704;0.152;2023-05-08T03:26:50;99350.78;;;21.40;52.63
10176;BME280;18221;38.704;0.152;2023-05-08T03:29:19;99347.25;;;21.39;52.50
10176;BME280;18221;38.704;0.152;2023-05-08T03:31:50;99345.22;;;21.48;52.36
10176;BME280;18221;38.704;0.152;2023-05-08T03:34:22;99342.28;;;21.43;52.36
10176;BME280;18221;38.704;0.152;2023-05-08T03:36:53;99340.38;;;21.37;52.51
10176;BME280;18221;38.704;0.152;2023-05-08T03:39:21;99341.69;;;21.47;52.21
10176;BME280;18221;38.704;0.152;2023-05-08T03:41:51;99333.53;;;21.41;52.44
10176;BME280;18221;38.704;0.152;2023-05-08T03:44:20;99324.56;;;21.34;52.73
10176;BME280;18221;38.704;0.152;2023-05-08T03:46:52;99330.16;;;21.26;52.99
10176;BME280;18221;38.704;0.152;2023-05-08T03:49:40;99330.19;;;21.05;53.70
10176;BME280;18221;38.704;0.152;2023-05-08T03:52:12;99319.66;;;21.10;53.39
10176;BME280;18221;38.704;0.152;2023-05-08T03:54:41;99324.28;;;21.16;53.35
10176;BME280;18221;38.704;0.152;2023-05-08T03:57:15;99328.06;;;21.21;53.23
10176;BME280;18221;38.704;0.152;2023-05-08T03:59:53;99339.63;;;21.15;53.42
10176;BME280;18221;38.704;0.152;2023-05-08T04:02:36;99339.47;;;21.17;53.33
10176;BME280;18221;38.704;0.152;2023-05-08T04:05:20;99348.19;;;21.19;53.35
10176;BME280;18221;38.704;0.152;2023-05-08T04:08:00;99346.72;;;21.16;53.24
10176;BME280;18221;38.704;0.152;2023-05-08T04:10:34;99339.97;;;21.06;53.46
10176;BME280;18221;38.704;0.152;2023-05-08T04:13:08;99334.63;;;21.12;53.04
10176;BME280;18221;38.704;0.152;2023-05-08T04:15:48;99336.34;;;21.20;52.92
10176;BME280;18221;38.704;0.152;2023-05-08T04:18:24;99338.81;;;21.15;53.02
10176;BME280;18221;38.704;0.152;2023-05-08T04:20:57;99336.34;;;21.20;52.61
10176;BME280;18221;38.704;0.152;2023-05-08T04:23:30;99325.53;;;21.20;52.43
10176;BME280;18221;38.704;0.152;2023-05-08T04:26:01;99326.59;;;21.25;51.82
10176;BME280;18221;38.704;0.152;2023-05-08T04:28:32;99328.00;;;21.15;51.82
10176;BME280;18221;38.704;0.152;2023-05-08T04:31:03;99321.97;;;21.13;51.48
10176;BME280;18221;38.704;0.152;2023-05-08T04:33:35;99325.28;;;21.15;51.29
10176;BME280;18221;38.704;0.152;2023-05-08T04:36:13;99328.44;;;21.18;50.77
10176;BME280;18221;38.704;0.152;2023-05-08T04:38:44;99329.00;;;21.07;51.11
10176;BME280;18221;38.704;0.152;2023-05-08T04:41:16;99318.25;;;21.20;50.36
10176;BME280;18221;38.704;0.152;2023-05-08T04:43:44;99324.19;;;21.37;49.44
10176;BME280;18221;38.704;0.152;2023-05-08T04:46:16;99320.69;;;21.43;49.12
10176;BME280;18221;38.704;0.152;2023-05-08T04:48:44;99316.91;;;21.44;48.38
10176;BME280;18221;38.704;0.152;2023-05-08T04:51:14;99320.28;;;21.52;47.87
10176;BME280;18221;38.704;0.152;2023-05-08T04:53:46;99318.22;;;21.54;47.50
10176;BME280;18221;38.704;0.152;2023-05-08T04:56:15;99319.47;;;21.52;47.08
10176;BME280;18221;38.704;0.152;2023-05-08T04:58:45;99325.09;;;21.57;46.57
10176;BME280;18221;38.704;0.152;2023-05-08T05:01:14;99318.44;;;21.60;46.57
10176;BME280;18221;38.704;0.152;2023-05-08T05:03:43;99314.09;;;21.65;46.29
10176;BME280;18221;38.704;0.152;2023-05-08T05:06:12;99320.53;;;21.64;46.13
10176;BME280;18221;38.704;0.152;2023-05-08T05:08:40;99321.34;;;21.58;46.23
10176;BME280;18221;38.704;0.152;2023-05-08T05:11:11;99326.13;;;21.56;45.90
10176;BME280;18221;38.704;0.152;2023-05-08T05:13:44;99330.88;;;21.54;45.94
10176;BME280;18221;38.704;0.152;2023-05-08T05:16:15;99339.03;;;21.67;45.51
10176;BME280;18221;38.704;0.152;2023-05-08T05:18:48;99338.59;;;21.57;45.54
10176;BME280;18221;38.704;0.152;2023-05-08T05:21:16;99346.53;;;21.65;45.41
10176;BME280;18221;38.704;0.152;2023-05-08T05:23:47;99348.22;;;21.66;45.00
10176;BME280;18221;38.704;0.152;2023-05-08T05:26:18;99348.22;;;21.66;44.87
10176;BME280;18221;38.704;0.152;2023-05-08T05:28:49;99340.31;;;21.71;44.74
10176;BME280;18221;38.704;0.152;2023-05-08T05:31:37;99340.72;;;21.75;44.43
10176;BME280;18221;38.704;0.152;2023-05-08T05:34:12;99339.94;;;21.81;44.17
10176;BME280;18221;38.704;0.152;2023-05-08T05:36:44;99343.66;;;21.73;44.45
10176;BME280;18221;38.704;0.152;2023-05-08T05:39:18;99337.00;;;21.82;44.07
10176;BME280;18221;38.704;0.152;2023-05-08T05:41:53;99334.53;;;21.81;44.25
10176;BME280;18221;38.704;0.152;2023-05-08T05:44:23;99340.16;;;21.79;44.31
10176;BME280;18221;38.704;0.152;2023-05-08T05:46:55;99333.91;;;21.85;44.09
10176;BME280;18221;38.704;0.152;2023-05-08T05:49:25;99340.94;;;21.80;44.08
10176;BME280;18221;38.704;0.152;2023-05-08T05:51:54;99335.63;;;21.93;43.49
10176;BME280;18221;38.704;0.152;2023-05-08T05:54:25;99340.53;;;21.76;43.63
10176;BME280;18221;38.704;0.152;2023-05-08T05:57:00;99339.31;;;21.79;43.70
10176;BME280;18221;38.704;0.152;2023-05-08T05:59:34;99340.22;;;21.92;43.53
10176;BME280;18221;38.704;0.152;2023-05-08T06:02:07;99337.91;;;21.89;43.22
10176;BME280;18221;38.704;0.152;2023-05-08T06:04:50;99335.66;;;21.99;42.69
10176;BME280;18221;38.704;0.152;2023-05-08T06:07:21;99341.28;;;22.11;42.18
10176;BME280;18221;38.704;0.152;2023-05-08T06:09:51;99346.69;;;22.04;41.69
10176;BME280;18221;38.704;0.152;2023-05-08T06:12:29;99334.41;;;22.22;41.02
10176;BME280;18221;38.704;0.152;2023-05-08T06:15:08;99341.72;;;22.28;40.89
10176;BME280;18221;38.704;0.152;2023-05-08T06:17:37;99340.03;;;22.27;40.83
10176;BME280;18221;38.704;0.152;2023-05-08T06:20:10;99344.22;;;22.36;40.83
10176;BME280;18221;38.704;0.152;2023-05-08T06:22:44;99345.69;;;22.45;40.41
10176;BME280;18221;38.704;0.152;2023-05-08T06:25:23;99340.91;;;22.53;39.94
10176;BME280;18221;38.704;0.152;2023-05-08T06:28:00;99355.88;;;22.30;40.56
10176;BME280;18221;38.704;0.152;2023-05-08T06:30:35;99351.72;;;22.40;41.35
10176;BME280;18221;38.704;0.152;2023-05-08T06:33:19;99354.22;;;22.42;41.67
10176;BME280;18221;38.704;0.152;2023-05-08T06:35:54;99350.47;;;22.43;41.72
10176;BME280;18221;38.704;0.152;2023-05-08T06:38:52;99356.06;;;22.35;41.34
10176;BME280;18221;38.704;0.152;2023-05-08T06:41:23;99358.81;;;22.41;41.65
10176;BME280;18221;38.704;0.152;2023-05-08T06:43:56;99352.56;;;22.41;41.74
10176;BME280;18221;38.704;0.152;2023-05-08T06:46:58;99356.72;;;22.37;41.99
10176;BME280;18221;38.704;0.152;2023-05-08T06:49:40;99350.88;;;22.33;41.67
10176;BME280;18221;38.704;0.152;2023-05-08T06:52:11;99358.41;;;22.57;41.22
10176;BME280;18221;38.704;0.152;2023-05-08T06:54:56;99360.31;;;22.70;40.06
10176;BME280;18221;38.704;0.152;2023-05-08T06:57:39;99363.41;;;22.87;38.82
10176;BME280;18221;38.704;0.152;2023-05-08T07:00:30;99361.72;;;23.05;37.88
10176;BME280;18221;38.704;0.152;2023-05-08T07:03:03;99361.69;;;23.18;37.58
10176;BME280;18221;38.704;0.152;2023-05-08T07:05:48;99364.59;;;23.30;37.37
10176;BME280;18221;38.704;0.152;2023-05-08T07:08:31;99370.19;;;23.42;37.29
10176;BME280;18221;38.704;0.152;2023-05-08T07:11:08;99359.91;;;23.63;37.62
10176;BME280;18221;38.704;0.152;2023-05-08T07:13:58;99368.13;;;23.44;38.40
10176;BME280;18221;38.704;0.152;2023-05-08T07:17:20;99369.97;;;23.50;38.58
10176;BME280;18221;38.704;0.152;2023-05-08T07:20:16;99370.19;;;23.48;38.82
10176;BME280;18221;38.704;0.152;2023-05-08T07:22:58;99382.91;;;23.48;39.03
10176;BME280;18221;38.704;0.152;2023-05-08T07:25:36;99367.94;;;23.39;38.63
10176;BME280;18221;38.704;0.152;2023-05-08T07:28:13;99371.84;;;23.36;38.68
10176;BME280;18221;38.704;0.152;2023-05-08T07:30:59;99367.28;;;23.30;39.04
10176;BME280;18221;38.704;0.152;2023-05-08T07:33:38;99371.25;;;23.41;38.58
10176;BME280;18221;38.704;0.152;2023-05-08T07:36:14;99364.16;;;23.26;38.11
10176;BME280;18221;38.704;0.152;2023-05-08T07:38:47;99372.81;;;23.74;37.56
10176;BME280;18221;38.704;0.152;2023-05-08T07:41:16;99369.19;;;23.87;37.49
10176;BME280;18221;38.704;0.152;2023-05-08T07:43:54;99364.97;;;23.98;37.05
10176;BME280;18221;38.704;0.152;2023-05-08T07:46:28;99366.34;;;24.07;36.80
10176;BME280;18221;38.704;0.152;2023-05-08T07:48:59;99361.63;;;24.33;36.64
10176;BME280;18221;38.704;0.152;2023-05-08T07:51:33;99362.00;;;24.93;36.13
10176;BME280;18221;38.704;0.152;2023-05-08T07:54:05;99358.31;;;25.66;34.35
10176;BME280;18221;38.704;0.152;2023-05-08T07:56:43;99353.72;;;26.15;33.22
10176;BME280;18221;38.704;0.152;2023-05-08T07:59:20;99349.38;;;27.13;31.51
10176;BME280;18221;38.704;0.152;2023-05-08T08:01:55;99353.63;;;28.24;30.12
10176;BME280;18221;38.704;0.152;2023-05-08T08:04:46;99362.56;;;29.30;29.51
10176;BME280;18221;38.704;0.152;2023-05-08T08:07:20;99369.91;;;29.90;28.08
10176;BME280;18221;38.704;0.152;2023-05-08T08:10:13;99357.25;;;30.91;27.43
10176;BME280;18221;38.704;0.152;2023-05-08T08:12:59;99366.47;;;31.16;26.54
10176;BME280;18221;38.704;0.152;2023-05-08T08:15:40;99371.06;;;32.10;25.60
10176;BME280;18221;38.704;0.152;2023-05-08T08:18:28;99369.03;;;32.82;24.60
10176;BME280;18221;38.704;0.152;2023-05-08T08:21:09;99370.09;;;33.32;23.63
10176;BME280;18221;38.704;0.152;2023-05-08T08:24:03;99374.78;;;33.16;23.12
10176;BME280;18221;38.704;0.152;2023-05-08T08:26:55;99375.31;;;32.73;23.93
10176;BME280;18221;38.704;0.152;2023-05-08T08:29:36;99377.97;;;31.55;25.57
10176;BME280;18221;38.704;0.152;2023-05-08T08:32:21;99379.91;;;30.49;26.94
10176;BME280;18221;38.704;0.152;2023-05-08T08:34:57;99386.34;;;29.52;29.07
10176;BME280;18221;38.704;0.152;2023-05-08T08:37:46;99389.25;;;28.45;31.02
10176;BME280;18221;38.704;0.152;2023-05-08T08:40:22;99399.22;;;27.72;31.74
10176;BME280;18221;38.704;0.152;2023-05-08T08:43:21;99403.41;;;27.05;33.41
10176;BME280;18221;38.704;0.152;2023-05-08T08:45:56;99398.09;;;27.10;33.16
10176;BME280;18221;38.704;0.152;2023-05-08T08:48:34;99406.63;;;26.90;33.21
10176;BME280;18221;38.704;0.152;2023-05-08T08:51:24;99410.19;;;27.02;33.60
10176;BME280;18221;38.704;0.152;2023-05-08T08:54:10;99416.69;;;27.01;33.52
10176;BME280;18221;38.704;0.152;2023-05-08T08:59:46;99417.31;;;26.62;35.57
10176;BME280;18221;38.704;0.152;2023-05-08T09:02:18;99424.44;;;26.33;36.52
10176;BME280;18221;38.704;0.152;2023-05-08T09:05:01;99421.69;;;26.63;36.26
10176;BME280;18221;38.704;0.152;2023-05-08T09:07:41;99432.25;;;26.71;36.31
10176;BME280;18221;38.704;0.152;2023-05-08T09:10:39;99432.19;;;26.77;36.23
10176;BME280;18221;38.704;0.152;2023-05-08T09:13:23;99431.78;;;26.74;36.39
10176;BME280;18221;38.704;0.152;2023-05-08T09:16:00;99433.09;;;26.71;36.37
10176;BME280;18221;38.704;0.152;2023-05-08T09:18:40;99430.13;;;26.73;36.68
10176;BME280;18221;38.704;0.152;2023-05-08T09:21:14;99427.97;;;26.63;36.95
10176;BME280;18221;38.704;0.152;2023-05-08T09:24:04;99420.06;;;26.73;37.05
10176;BME280;18221;38.704;0.152;2023-05-08T09:26:43;99425.84;;;26.65;37.15
10176;BME280;18221;38.704;0.152;2023-05-08T09:29:15;99422.47;;;26.40;37.31
10176;BME280;18221;38.704;0.152;2023-05-08T09:32:07;99419.28;;;26.43;37.47
10176;BME280;18221;38.704;0.152;2023-05-08T09:35:34;99425.63;;;26.67;37.64
10176;BME280;18221;38.704;0.152;2023-05-08T09:38:43;99415.00;;;26.77;37.09
10176;BME280;18221;38.704;0.152;2023-05-08T09:42:09;99415.13;;;26.93;37.06
10176;BME280;18221;38.704;0.152;2023-05-08T09:45:09;99413.59;;;27.09;36.74
10176;BME280;18221;38.704;0.152;2023-05-08T09:48:12;99414.56;;;27.15;36.84
10176;BME280;18221;38.704;0.152;2023-05-08T09:51:07;99413.59;;;27.09;37.39
10176;BME280;18221;38.704;0.152;2023-05-08T09:53:52;99419.06;;;27.09;36.94
10176;BME280;18221;38.704;0.152;2023-05-08T10:00:14;99432.00;;;27.14;37.35
10176;BME280;18221;38.704;0.152;2023-05-08T10:02:55;99431.13;;;26.78;38.54
10176;BME280;18221;38.704;0.152;2023-05-08T10:05:28;99422.97;;;27.02;38.08
10176;BME280;18221;38.704;0.152;2023-05-08T10:07:58;99431.97;;;26.90;38.42
10176;BME280;18221;38.704;0.152;2023-05-08T10:10:28;99434.34;;;26.98;38.29
10176;BME280;18221;38.704;0.152;2023-05-08T10:12:58;99425.81;;;27.07;38.50
10176;BME280;18221;38.704;0.152;2023-05-08T10:15:32;99440.63;;;27.22;38.54
10176;BME280;18221;38.704;0.152;2023-05-08T10:18:04;99432.47;;;27.11;38.66
10176;BME280;18221;38.704;0.152;2023-05-08T10:20:37;99432.19;;;26.89;38.77
10176;BME280;18221;38.704;0.152;2023-05-08T10:23:09;99433.41;;;27.05;38.72
10176;BME280;18221;38.704;0.152;2023-05-08T10:25:45;99422.75;;;27.26;38.35
10176;BME280;18221;38.704;0.152;2023-05-08T10:28:23;99422.75;;;27.15;38.81
10176;BME280;18221;38.704;0.152;2023-05-08T10:31:00;99425.81;;;27.07;39.14
10176;BME280;18221;38.704;0.152;2023-05-08T10:33:33;99422.94;;;26.78;39.67
10176;BME280;18221;38.704;0.152;2023-05-08T10:36:02;99428.81;;;26.75;39.70
10176;BME280;18221;38.704;0.152;2023-05-08T10:38:33;99416.31;;;26.86;39.57
10176;BME280;18221;38.704;0.152;2023-05-08T10:41:03;99412.91;;;26.90;39.36
10176;BME280;18221;38.704;0.152;2023-05-08T10:43:32;99411.72;;;26.98;39.39
10176;BME280;18221;38.704;0.152;2023-05-08T10:46:15;99406.97;;;27.17;38.83
10176;BME280;18221;38.704;0.152;2023-05-08T10:48:55;99407.56;;;27.30;38.45
10176;BME280;18221;38.704;0.152;2023-05-08T10:51:40;99418.03;;;27.45;38.53
10176;BME280;18221;38.704;0.152;2023-05-08T10:54:18;99416.72;;;27.24;39.15
10176;BME280;18221;38.704;0.152;2023-05-08T10:56:49;99411.97;;;27.31;39.11
10176;BME280;18221;38.704;0.152;2023-05-08T10:59:18;99406.88;;;27.35;39.42
10176;BME280;18221;38.704;0.152;2023-05-08T11:01:49;99406.03;;;27.46;38.95
10176;BME280;18221;38.704;0.152;2023-05-08T11:04:22;99413.03;;;27.53;38.37
10176;BME280;18221;38.704;0.152;2023-05-08T11:06:51;99407.25;;;27.50;38.54
10176;BME280;18221;38.704;0.152;2023-05-08T11:09:21;99403.69;;;27.49;38.48
10176;BME280;18221;38.704;0.152;2023-05-08T11:12:19;99405.47;;;27.55;38.70
10176;BME280;18221;38.704;0.152;2023-05-08T11:15:00;99403.22;;;27.52;39.28
10176;BME280;18221;38.704;0.152;2023-05-08T11:17:31;99403.78;;;27.54;39.19
10176;BME280;18221;38.704;0.152;2023-05-08T11:20:02;99404.25;;;27.51;39.17
10176;BME280;18221;38.704;0.152;2023-05-08T11:22:35;99399.97;;;27.67;38.47
10176;BME280;18221;38.704;0.152;2023-05-08T11:25:07;99395.19;;;27.74;38.79
10176;BME280;18221;38.704;0.152;2023-05-08T11:28:08;99388.19;;;27.78;38.55
10176;BME280;18221;38.704;0.152;2023-05-08T11:30:40;99389.50;;;27.76;38.31
10176;BME280;18221;38.704;0.152;2023-05-08T11:33:22;99396.03;;;27.75;38.16
10176;BME280;18221;38.704;0.152;2023-05-08T11:35:55;99393.06;;;27.76;38.10
10176;BME280;18221;38.704;0.152;2023-05-08T11:38:29;99382.63;;;27.73;37.97
10176;BME280;18221;38.704;0.152;2023-05-08T11:41:01;99391.72;;;27.90;38.44
10176;BME280;18221;38.704;0.152;2023-05-08T11:44:18;99386.59;;;28.05;37.97
10176;BME280;18221;38.704;0.152;2023-05-08T11:46:50;99387.41;;;28.06;38.29
10176;BME280;18221;38.704;0.152;2023-05-08T11:49:23;99377.75;;;27.87;38.60
10176;BME280;18221;38.704;0.152;2023-05-08T11:51:53;99373.63;;;28.01;37.98
10176;BME280;18221;38.704;0.152;2023-05-08T11:54:28;99367.53;;;27.82;38.79
10176;BME280;18221;38.704;0.152;2023-05-08T11:56:58;99356.50;;;27.77;39.25
10176;BME280;18221;38.704;0.152;2023-05-08T11:59:27;99356.69;;;28.10;39.28
10176;BME280;18221;38.704;0.152;2023-05-08T12:01:56;99351.41;;;28.21;38.47
10176;BME280;18221;38.704;0.152;2023-05-08T12:04:26;99352.72;;;28.35;38.45
10176;BME280;18221;38.704;0.152;2023-05-08T12:06:57;99346.44;;;28.34;38.43
10176;BME280;18221;38.704;0.152;2023-05-08T12:09:27;99342.38;;;28.20;38.75
10176;BME280;18221;38.704;0.152;2023-05-08T12:11:58;99339.72;;;28.25;38.69
10176;BME280;18221;38.704;0.152;2023-05-08T12:14:27;99337.41;;;28.17;38.59
10176;BME280;18221;38.704;0.152;2023-05-08T12:16:56;99337.13;;;28.18;39.21
10176;BME280;18221;38.704;0.152;2023-05-08T12:19:26;99337.56;;;28.10;39.33
10176;BME280;18221;38.704;0.152;2023-05-08T12:21:57;99329.72;;;28.31;38.92
10176;BME280;18221;38.704;0.152;2023-05-08T12:24:26;99333.78;;;28.00;39.13
10176;BME280;18221;38.704;0.152;2023-05-08T12:26:54;99327.34;;;28.06;39.09
10176;BME280;18221;38.704;0.152;2023-05-08T12:29:24;99323.50;;;28.18;38.93
10176;BME280;18221;38.704;0.152;2023-05-08T12:31:53;99325.03;;;28.26;39.01
10176;BME280;18221;38.704;0.152;2023-05-08T12:34:26;99327.75;;;28.43;39.08
10176;BME280;18221;38.704;0.152;2023-05-08T12:37:04;99327.31;;;28.17;38.89
10176;BME280;18221;38.704;0.152;2023-05-08T12:39:36;99328.84;;;28.42;38.71
10176;BME280;18221;38.704;0.152;2023-05-08T12:42:05;99324.31;;;28.64;38.37
10176;BME280;18221;38.704;0.152;2023-05-08T12:44:33;99325.97;;;28.65;38.16
10176;BME280;18221;38.704;0.152;2023-05-08T12:47:04;99326.53;;;28.84;37.82
10176;BME280;18221;38.704;0.152;2023-05-08T12:49:36;99315.09;;;29.03;37.09
10176;BME280;18221;38.704;0.152;2023-05-08T12:52:08;99320.25;;;28.83;36.50
10176;BME280;18221;38.704;0.152;2023-05-08T12:54:38;99316.84;;;28.76;37.04
10176;BME280;18221;38.704;0.152;2023-05-08T12:57:12;99313.69;;;28.51;37.92
10176;BME280;18221;38.704;0.152;2023-05-08T12:59:42;99318.00;;;28.63;38.86
10176;BME280;18221;38.704;0.152;2023-05-08T13:02:17;99317.53;;;28.66;37.96
10176;BME280;18221;38.704;0.152;2023-05-08T13:04:53;99323.81;;;28.67;38.20
10176;BME280;18221;38.704;0.152;2023-05-08T13:07:23;99313.19;;;28.87;38.20
10176;BME280;18221;38.704;0.152;2023-05-08T13:09:59;99314.38;;;28.91;37.51
10176;BME280;18221;38.704;0.152;2023-05-08T13:12:30;99307.84;;;29.14;36.95
10176;BME280;18221;38.704;0.152;2023-05-08T13:14:59;99301.78;;;29.28;35.41
10176;BME280;18221;38.704;0.152;2023-05-08T13:17:32;99298.00;;;29.51;36.02
10176;BME280;18221;38.704;0.152;2023-05-08T13:20:05;99291.22;;;29.59;36.59
10176;BME280;18221;38.704;0.152;2023-05-08T13:22:35;99294.72;;;29.32;36.40
10176;BME280;18221;38.704;0.152;2023-05-08T13:25:04;99298.31;;;29.16;36.66
10176;BME280;18221;38.704;0.152;2023-05-08T13:27:33;99301.28;;;28.76;37.38
10176;BME280;18221;38.704;0.152;2023-05-08T13:30:02;99301.78;;;28.57;37.42
10176;BME280;18221;38.704;0.152;2023-05-08T13:32:31;99295.47;;;28.40;38.14
10176;BME280;18221;38.704;0.152;2023-05-08T13:34:59;99303.94;;;28.55;37.78
10176;BME280;18221;38.704;0.152;2023-05-08T13:37:30;99296.00;;;28.08;39.08
10176;BME280;18221;38.704;0.152;2023-05-08T13:39:58;99287.69;;;28.15;38.84
10176;BME280;18221;38.704;0.152;2023-05-08T13:42:27;99291.97;;;28.28;38.74
10176;BME280;18221;38.704;0.152;2023-05-08T13:44:56;99292.78;;;28.11;39.09
10176;BME280;18221;38.704;0.152;2023-05-08T13:47:24;99284.88;;;27.98;38.90
10176;BME280;18221;38.704;0.152;2023-05-08T13:49:53;99280.53;;;28.14;39.12
10176;BME280;18221;38.704;0.152;2023-05-08T13:52:22;99275.00;;;28.09;37.99
10176;BME280;18221;38.704;0.152;2023-05-08T13:54:52;99270.06;;;28.23;38.02
10176;BME280;18221;38.704;0.152;2023-05-08T13:57:21;99268.81;;;28.47;37.81